Tarrant West's Hourly Summary for Tuesday, March 14, 2017
Hour Temp
(f)
RH
(%)
Solar Rad.
(MJ/m2)
Rainfall
(in)
Wind
(mph)
3/14/2017 12:00 AM 42 45 0 0 6.2
3/14/2017 1:00 AM 42 47 0 0 7.83
3/14/2017 2:00 AM 39 51 0 0 4.3
3/14/2017 3:00 AM 38 55 0 0 6.3
3/14/2017 4:00 AM 38 57 0 0 4.1
3/14/2017 5:00 AM 38 58 0 0 3.83
3/14/2017 6:00 AM 36 63 0 0 4.8
3/14/2017 7:00 AM 37 65 0.01 0 3.98
3/14/2017 8:00 AM 38 66 0.29 0 2.83
3/14/2017 9:00 AM 43 54 0.93 0 4.75
3/14/2017 10:00 AM 46 46 1.64 0 6.42
3/14/2017 11:00 AM 49 42 2.33 0 6.2
3/14/2017 12:00 PM 53 39 2.76 0 6.13
3/14/2017 1:00 PM 56 36 2.97 0 7.53
3/14/2017 2:00 PM 59 31 2.91 0 8.2
3/14/2017 3:00 PM 61 31 2.66 0 8.7
3/14/2017 4:00 PM 63 32 1.56 0 8.63
3/14/2017 5:00 PM 64 33 0.62 0 8.32
3/14/2017 6:00 PM 64 33 0.56 0 7.13
3/14/2017 7:00 PM 61 37 0.13 0 7.53
3/14/2017 8:00 PM 59 41 0 0 8.9
3/14/2017 9:00 PM 57 43 0 0 7.92
3/14/2017 10:00 PM 56 46 0 0 7.17
3/14/2017 11:00 PM 54 50 0 0 7.65
Data Summary 49 45 19.37 0.00 6.47